createdAt,value
2022-11-01T00:01:33.595Z,25.35
2022-11-01T00:04:35.580Z,27.70
2022-11-01T00:07:37.662Z,24.47
2022-11-01T00:10:39.692Z,29.17
2022-11-01T00:13:42.105Z,26.90
2022-11-01T00:16:44.596Z,25.65
2022-11-01T00:19:46.659Z,32.65
2022-11-01T00:22:48.580Z,27.60
2022-11-01T00:25:50.767Z,32.30
2022-11-01T00:28:52.849Z,25.70
2022-11-01T00:31:55.140Z,30.95
2022-11-01T00:34:57.066Z,24.58
2022-11-01T00:38:00.495Z,33.20
2022-11-01T00:41:04.095Z,28.57
2022-11-01T00:44:06.462Z,27.53
2022-11-01T00:47:08.341Z,25.60
2022-11-01T00:50:10.426Z,32.23
2022-11-01T00:53:13.291Z,36.40
2022-11-01T00:56:15.382Z,32.17
2022-11-01T00:59:17.355Z,25.33
2022-11-01T01:02:19.567Z,29.60
2022-11-01T01:05:21.651Z,27.45
2022-11-01T01:08:24.631Z,34.03
2022-11-01T01:11:27.107Z,28.30
2022-11-01T01:14:32.328Z,27.73
2022-11-01T01:17:34.692Z,29.02
2022-11-01T01:20:36.954Z,35.40
2022-11-01T01:23:38.911Z,31.10
2022-11-01T01:26:42.591Z,32.13
2022-11-01T01:29:45.389Z,30.92
2022-11-01T01:32:47.631Z,37.50
2022-11-01T01:35:49.514Z,31.80
2022-11-01T01:38:53.209Z,37.80
2022-11-01T01:41:58.220Z,35.42
2022-11-01T01:45:00.334Z,38.30
2022-11-01T01:48:24.852Z,28.73
2022-11-01T01:51:29.105Z,31.35
2022-11-01T01:54:32.411Z,34.65
2022-11-01T01:57:36.859Z,31.73
2022-11-01T02:00:39.380Z,26.88
2022-11-01T02:03:42.646Z,36.50
2022-11-01T02:06:44.844Z,33.80
2022-11-01T02:09:47.884Z,30.80
2022-11-01T02:12:50.111Z,40.00
2022-11-01T02:16:01.128Z,34.35
2022-11-01T02:19:30.913Z,28.20
2022-11-01T02:23:07.469Z,30.70
2022-11-01T02:26:30.551Z,30.43
2022-11-01T02:30:03.491Z,29.00
2022-11-01T02:33:30.639Z,35.27
2022-11-01T02:36:49.071Z,33.80
2022-11-01T02:39:57.852Z,25.90
2022-11-01T02:43:10.046Z,29.58
2022-11-01T02:46:30.957Z,29.20
2022-11-01T02:49:35.416Z,32.30
2022-11-01T02:52:40.532Z,27.58
2022-11-01T02:58:47.947Z,25.90
2022-11-01T03:01:58.658Z,23.33
2022-11-01T03:05:00.887Z,28.20
2022-11-01T03:08:19.873Z,26.97
2022-11-01T03:11:33.154Z,31.73
2022-11-01T03:14:57.677Z,23.15
2022-11-01T03:18:11.789Z,27.63
2022-11-01T03:21:21.131Z,27.33
2022-11-01T03:24:27.204Z,29.93
2022-11-01T03:27:35.488Z,27.73
2022-11-01T03:30:42.035Z,28.23
2022-11-01T03:33:48.864Z,25.37
2022-11-01T03:37:00.367Z,37.17
2022-11-01T03:40:06.654Z,33.13
2022-11-01T03:43:12.624Z,24.33
2022-11-01T03:46:15.839Z,28.30
2022-11-01T03:49:19.526Z,26.23
2022-11-01T03:52:21.682Z,49.00
2022-11-01T03:55:24.091Z,38.07
2022-11-01T03:58:41.549Z,38.83
2022-11-01T04:01:43.893Z,33.10
2022-11-01T04:04:46.169Z,23.00
2022-11-01T04:07:48.693Z,21.90
2022-11-01T04:10:50.815Z,24.85
2022-11-01T04:13:52.902Z,25.70
2022-11-01T04:17:13.752Z,26.87
2022-11-01T04:20:33.831Z,32.93
2022-11-01T04:23:35.959Z,24.20
2022-11-01T04:26:37.966Z,25.80
2022-11-01T04:29:40.053Z,24.33
2022-11-01T04:32:44.957Z,24.90
2022-11-01T04:35:47.374Z,38.10
2022-11-01T04:38:51.654Z,33.93
2022-11-01T04:41:53.721Z,32.80
2022-11-01T04:44:55.604Z,25.37
2022-11-01T04:48:18.328Z,25.07
2022-11-01T04:51:20.223Z,23.07
2022-11-01T04:54:22.319Z,24.83
2022-11-01T04:57:24.437Z,28.07
2022-11-01T05:00:26.668Z,24.07
2022-11-01T05:03:28.601Z,25.27
2022-11-01T05:06:30.717Z,27.03
2022-11-01T05:09:32.680Z,23.48
2022-11-01T05:12:35.274Z,27.40
2022-11-01T05:15:39.896Z,24.38
2022-11-01T05:18:45.861Z,25.15
2022-11-01T05:21:47.889Z,23.17
2022-11-01T05:24:49.965Z,24.43
2022-11-01T05:27:51.832Z,28.23
2022-11-01T05:30:53.946Z,28.23
2022-11-01T05:33:55.858Z,26.67
2022-11-01T05:36:57.996Z,25.20
2022-11-01T05:39:59.862Z,25.88
2022-11-01T05:43:02.244Z,29.67
2022-11-01T05:46:08.044Z,24.92
2022-11-01T05:49:10.239Z,21.35
2022-11-01T05:52:12.183Z,26.15
2022-11-01T05:55:14.335Z,26.52
2022-11-01T05:58:16.404Z,26.77
2022-11-01T06:01:18.702Z,28.15
2022-11-01T06:04:22.703Z,25.25
2022-11-01T06:07:26.368Z,24.88
2022-11-01T06:10:28.773Z,23.97
2022-11-01T06:13:31.560Z,24.63
2022-11-01T06:16:33.875Z,31.30
2022-11-01T06:19:35.948Z,28.73
2022-11-01T06:22:38.258Z,29.52
2022-11-01T06:25:40.427Z,26.30
2022-11-01T06:28:42.423Z,31.60
2022-11-01T06:31:44.549Z,31.25
2022-11-01T06:34:46.454Z,35.05
2022-11-01T06:37:48.622Z,31.33
2022-11-01T06:40:50.529Z,33.80
2022-11-01T06:43:52.662Z,35.85
2022-11-01T06:46:55.145Z,32.13
2022-11-01T06:49:57.246Z,39.53
2022-11-01T06:53:00.196Z,37.38
2022-11-01T06:56:03.097Z,34.30
2022-11-01T06:59:05.370Z,40.30
2022-11-01T07:02:13.984Z,34.45
2022-11-01T07:05:16.573Z,38.67
2022-11-01T07:08:18.831Z,32.63
2022-11-01T07:11:20.881Z,41.28
2022-11-01T07:14:23.239Z,38.63
2022-11-01T07:17:25.191Z,37.97
2022-11-01T07:20:30.315Z,38.05
2022-11-01T07:23:32.821Z,37.55
2022-11-01T07:26:34.889Z,39.35
2022-11-01T07:29:36.828Z,42.13
2022-11-01T07:32:39.988Z,38.40
2022-11-01T07:35:41.987Z,41.88
2022-11-01T07:38:44.149Z,37.90
2022-11-01T07:41:46.233Z,35.85
2022-11-01T07:44:48.366Z,43.08
2022-11-01T07:47:50.391Z,41.97
2022-11-01T07:50:56.362Z,44.45
2022-11-01T07:53:58.732Z,42.90
2022-11-01T07:57:00.819Z,42.15
2022-11-01T08:00:02.798Z,49.03
2022-11-01T08:03:14.194Z,41.00
2022-11-01T08:06:16.939Z,42.78
2022-11-01T08:09:19.131Z,50.10
2022-11-01T08:12:21.025Z,46.58
2022-11-01T08:15:23.229Z,38.03
2022-11-01T08:18:25.276Z,49.50
2022-11-01T08:21:27.575Z,45.38
2022-11-01T08:24:29.587Z,44.67
2022-11-01T08:27:34.429Z,49.53
2022-11-01T08:30:41.210Z,48.00
2022-11-01T08:33:43.438Z,47.72
2022-11-01T08:36:45.337Z,45.05
2022-11-01T08:39:47.518Z,49.15
2022-11-01T08:42:49.521Z,53.88
2022-11-01T08:45:51.996Z,51.63
2022-11-01T08:48:59.180Z,48.30
2022-11-01T08:52:01.308Z,46.55
2022-11-01T08:55:04.077Z,43.35
2022-11-01T08:58:07.168Z,44.85
2022-11-01T09:01:09.132Z,42.28
2022-11-01T09:04:12.408Z,44.50
2022-11-01T09:07:14.404Z,45.47
2022-11-01T09:10:17.102Z,40.88
2022-11-01T09:13:20.471Z,47.83
2022-11-01T09:16:22.580Z,42.00
2022-11-01T09:19:24.569Z,45.13
2022-11-01T09:22:26.702Z,46.25
2022-11-01T09:25:28.611Z,47.42
2022-11-01T09:28:33.808Z,43.53
2022-11-01T09:31:36.347Z,46.47
2022-11-01T09:34:38.441Z,46.50
2022-11-01T09:37:40.436Z,48.38
2022-11-01T09:40:46.711Z,46.58
2022-11-01T09:43:50.723Z,48.97
2022-11-01T09:47:21.024Z,46.08
2022-11-01T09:50:30.234Z,48.88
2022-11-01T09:53:32.365Z,51.95
2022-11-01T09:56:48.317Z,55.13
2022-11-01T10:00:16.291Z,55.88
2022-11-01T10:03:56.864Z,57.03
2022-11-01T10:07:08.029Z,61.15
2022-11-01T10:10:22.480Z,57.97
2022-11-01T10:13:53.645Z,59.58
2022-11-01T10:17:05.763Z,60.38
2022-11-01T10:20:12.227Z,57.85
2022-11-01T10:23:17.094Z,59.05
2022-11-01T10:26:28.597Z,53.78
2022-11-01T10:29:40.952Z,56.13
2022-11-01T10:32:54.649Z,60.83
2022-11-01T10:40:15.694Z,49.97
2022-11-01T10:43:21.168Z,51.22
2022-11-01T10:46:28.190Z,58.15
2022-11-01T10:53:05.038Z,55.75
2022-11-01T10:56:12.407Z,56.45
2022-11-01T10:59:47.678Z,57.67
2022-11-01T11:02:57.260Z,57.20
2022-11-01T11:06:05.862Z,56.25
2022-11-01T11:09:18.479Z,55.22
2022-11-01T11:12:23.141Z,57.83
2022-11-01T11:15:55.017Z,57.22
2022-11-01T11:19:02.161Z,55.83
2022-11-01T11:22:07.642Z,46.42
2022-11-01T11:25:19.487Z,51.83
2022-11-01T11:28:26.699Z,50.78
2022-11-01T11:31:31.650Z,52.20
2022-11-01T11:34:36.628Z,52.60
2022-11-01T11:37:39.703Z,62.90
2022-11-01T11:40:42.934Z,63.40
2022-11-01T11:43:45.237Z,59.60
2022-11-01T11:46:57.069Z,64.03
2022-11-01T11:50:00.621Z,63.40
2022-11-01T11:53:23.408Z,79.00
2022-11-01T11:56:25.597Z,67.70
2022-11-01T11:59:32.353Z,65.50
2022-11-01T12:02:37.875Z,67.07
2022-11-01T12:05:52.894Z,66.13
2022-11-01T12:08:57.105Z,65.10
2022-11-01T12:12:07.449Z,66.78
2022-11-01T12:15:38.456Z,68.13
2022-11-01T12:19:02.607Z,71.13
2022-11-01T12:22:04.863Z,65.40
2022-11-01T12:25:24.544Z,64.32
2022-11-01T12:28:48.835Z,67.45
2022-11-01T12:31:52.707Z,65.75
2022-11-01T12:34:59.576Z,64.90
2022-11-01T12:38:13.529Z,67.38
2022-11-01T12:41:40.866Z,71.35
2022-11-01T12:44:47.545Z,65.95
2022-11-01T12:48:15.906Z,67.22
2022-11-01T12:51:43.460Z,66.18
2022-11-01T12:55:18.017Z,62.03
2022-11-01T12:58:23.365Z,61.70
2022-11-01T13:01:56.504Z,64.03
2022-11-01T13:05:19.864Z,61.45
2022-11-01T13:08:45.146Z,66.10
2022-11-01T13:11:54.091Z,63.63
2022-11-01T13:15:14.408Z,63.92
2022-11-01T13:18:28.357Z,67.68
2022-11-01T13:21:37.398Z,66.65
2022-11-01T13:24:52.264Z,66.50
2022-11-01T13:28:25.157Z,74.00
2022-11-01T13:31:45.717Z,72.78
2022-11-01T13:35:25.902Z,75.15
2022-11-01T13:38:46.612Z,80.07
2022-11-01T13:42:26.798Z,80.55
2022-11-01T13:45:50.065Z,78.78
2022-11-01T13:49:12.180Z,76.03
2022-11-01T13:52:26.960Z,78.90
2022-11-01T13:55:39.465Z,79.70
2022-11-01T13:58:41.602Z,84.55
2022-11-01T14:01:43.940Z,86.05
2022-11-01T14:05:04.534Z,82.40
2022-11-01T14:08:12.672Z,85.60
2022-11-01T14:11:45.121Z,86.40
2022-11-01T14:14:47.154Z,83.45
2022-11-01T14:17:52.592Z,90.68
2022-11-01T14:20:55.972Z,84.63
2022-11-01T14:24:08.107Z,83.28
2022-11-01T14:27:32.423Z,88.97
2022-11-01T14:30:38.481Z,85.22
2022-11-01T14:33:40.831Z,85.85
2022-11-01T14:36:44.351Z,94.85
2022-11-01T14:39:55.191Z,99.57
2022-11-01T14:43:04.638Z,87.32
2022-11-01T14:46:13.370Z,108.80
2022-11-01T14:49:21.274Z,94.25
2022-11-01T14:52:41.429Z,100.15
2022-11-01T14:55:43.404Z,92.97
2022-11-01T14:58:46.487Z,99.03
2022-11-01T15:01:57.079Z,91.95
2022-11-01T15:05:03.387Z,94.15
2022-11-01T15:08:25.580Z,95.20
2022-11-01T15:11:30.140Z,103.88
2022-11-01T15:14:44.393Z,96.82
2022-11-01T15:18:02.856Z,107.85
2022-11-01T15:21:06.998Z,109.70
2022-11-01T15:24:20.380Z,112.28
2022-11-01T15:27:24.682Z,107.10
2022-11-01T15:30:32.593Z,111.57
2022-11-01T15:33:34.957Z,94.95
2022-11-01T15:36:38.565Z,95.38
2022-11-01T15:39:40.507Z,79.72
2022-11-01T15:42:48.932Z,90.07
2022-11-01T15:46:00.046Z,84.78
2022-11-01T15:49:18.812Z,82.70
2022-11-01T15:52:40.764Z,86.38
2022-11-01T15:55:47.511Z,82.25
2022-11-01T15:58:55.077Z,84.60
2022-11-01T16:02:01.056Z,87.05
2022-11-01T16:05:03.782Z,94.03
2022-11-01T16:08:09.098Z,87.30
2022-11-01T16:11:15.631Z,82.35
2022-11-01T16:14:36.334Z,81.32
2022-11-01T16:17:42.252Z,79.10
2022-11-01T16:20:47.391Z,80.88
2022-11-01T16:24:15.713Z,81.63
2022-11-01T16:27:28.248Z,83.38
2022-11-01T16:30:42.226Z,81.38
2022-11-01T16:33:46.360Z,81.20
2022-11-01T16:36:48.741Z,86.07
2022-11-01T16:39:52.169Z,73.15
2022-11-01T16:42:56.881Z,77.75
2022-11-01T16:45:59.705Z,75.63
2022-11-01T16:49:16.495Z,81.07
2022-11-01T16:52:19.219Z,77.70
2022-11-01T16:55:24.086Z,79.20
2022-11-01T16:58:31.632Z,78.63
2022-11-01T17:01:35.886Z,79.70
2022-11-01T17:04:40.089Z,78.95
2022-11-01T17:07:49.440Z,89.18
2022-11-01T17:10:52.265Z,97.53
2022-11-01T17:13:54.434Z,91.05
2022-11-01T17:16:57.321Z,82.53
2022-11-01T17:20:04.121Z,88.82
2022-11-01T17:23:10.553Z,88.35
2022-11-01T17:26:14.369Z,82.63
2022-11-01T17:29:16.906Z,86.22
2022-11-01T17:32:18.999Z,83.63
2022-11-01T17:35:24.236Z,82.90
2022-11-01T17:38:34.700Z,88.13
2022-11-01T17:41:37.488Z,77.75
2022-11-01T17:44:39.733Z,91.63
2022-11-01T17:47:42.550Z,86.15
2022-11-01T17:50:45.392Z,87.53
2022-11-01T17:53:53.373Z,83.25
2022-11-01T17:56:56.064Z,88.15
2022-11-01T17:59:58.582Z,85.72
2022-11-01T18:03:00.888Z,84.70
2022-11-01T18:06:05.093Z,93.22
2022-11-01T18:09:20.359Z,106.47
2022-11-01T18:12:34.448Z,123.47
2022-11-01T18:15:44.129Z,128.25
2022-11-01T18:19:08.968Z,142.43
2022-11-01T18:22:34.596Z,145.85
2022-11-01T18:25:50.741Z,141.93
2022-11-01T18:29:09.483Z,139.48
2022-11-01T18:32:15.162Z,122.97
2022-11-01T18:35:17.779Z,118.13
2022-11-01T18:38:26.711Z,104.97
2022-11-01T18:41:30.201Z,106.18
2022-11-01T18:44:33.264Z,95.35
2022-11-01T18:47:40.195Z,94.43
2022-11-01T18:50:43.092Z,93.47
2022-11-01T18:53:45.761Z,84.72
2022-11-01T18:56:55.863Z,81.50
2022-11-01T18:59:58.440Z,77.85
2022-11-01T19:03:02.772Z,64.97
2022-11-01T19:06:21.809Z,64.80
2022-11-01T19:09:30.242Z,64.07
2022-11-01T19:12:43.963Z,57.80
2022-11-01T19:15:51.657Z,60.72
2022-11-01T19:18:56.564Z,51.00
2022-11-01T19:22:02.360Z,50.22
2022-11-01T19:25:24.372Z,49.58
2022-11-01T19:28:33.479Z,56.45
2022-11-01T19:31:40.077Z,53.60
2022-11-01T19:34:43.558Z,48.28
2022-11-01T19:37:47.517Z,48.67
2022-11-01T19:40:52.829Z,50.03
2022-11-01T19:43:59.351Z,47.00
2022-11-01T19:47:32.631Z,48.08
2022-11-01T19:50:40.122Z,46.92
2022-11-01T19:53:43.319Z,46.80
2022-11-01T19:56:45.812Z,39.25
2022-11-01T19:59:48.168Z,43.60
2022-11-01T20:02:53.180Z,42.05
2022-11-01T20:05:55.595Z,40.35
2022-11-01T20:09:29.254Z,40.40
2022-11-01T20:12:31.358Z,37.42
2022-11-01T20:15:33.459Z,36.92
2022-11-01T20:18:36.061Z,38.40
2022-11-01T20:21:38.370Z,39.92
2022-11-01T20:24:40.446Z,38.28
2022-11-01T20:27:42.671Z,35.22
2022-11-01T20:30:44.812Z,42.33
2022-11-01T20:33:46.817Z,52.72
2022-11-01T20:37:08.131Z,39.00
2022-11-01T20:40:12.374Z,38.90
2022-11-01T20:43:14.649Z,38.58
2022-11-01T20:46:16.921Z,39.17
2022-11-01T20:49:19.194Z,34.00
2022-11-01T20:55:43.823Z,30.10
2022-11-01T20:58:45.766Z,35.03
2022-11-01T21:01:48.417Z,28.85
2022-11-01T21:05:01.054Z,30.58
2022-11-01T21:08:22.396Z,27.70
2022-11-01T21:11:43.711Z,28.05
2022-11-01T21:14:48.680Z,28.98
2022-11-01T21:18:01.736Z,30.75
2022-11-01T21:21:30.437Z,28.98
2022-11-01T21:24:37.315Z,27.20
2022-11-01T21:27:39.415Z,28.40
2022-11-01T21:30:41.436Z,29.02
2022-11-01T21:33:51.146Z,27.60
2022-11-01T21:36:53.518Z,25.23
2022-11-01T21:40:14.566Z,28.48
2022-11-01T21:43:26.867Z,38.65
2022-11-01T21:46:33.341Z,52.08
2022-11-01T21:49:36.628Z,46.60
2022-11-01T21:52:38.689Z,45.05
2022-11-01T21:55:40.602Z,47.63
2022-11-01T21:58:42.716Z,52.22
2022-11-01T22:01:47.117Z,40.95
2022-11-01T22:04:49.422Z,44.95
2022-11-01T22:07:51.279Z,43.15
2022-11-01T22:10:53.443Z,45.08
2022-11-01T22:13:55.419Z,44.42
2022-11-01T22:16:57.571Z,42.40
2022-11-01T22:19:59.535Z,38.40
2022-11-01T22:23:02.025Z,41.97
2022-11-01T22:26:04.212Z,40.25
2022-11-01T22:29:06.278Z,38.85
2022-11-01T22:32:08.223Z,34.97
2022-11-01T22:35:10.311Z,32.05
2022-11-01T22:38:19.164Z,30.48
2022-11-01T22:41:32.862Z,24.17
2022-11-01T22:44:37.689Z,24.88
2022-11-01T22:47:39.938Z,22.90
2022-11-01T22:50:41.856Z,23.13
2022-11-01T22:53:44.033Z,24.20
2022-11-01T22:56:49.341Z,23.85
2022-11-01T22:59:59.774Z,25.45
2022-11-01T23:03:22.544Z,22.27
2022-11-01T23:06:33.391Z,18.15
2022-11-01T23:09:35.359Z,18.02
2022-11-01T23:12:56.218Z,18.77
2022-11-01T23:16:03.177Z,21.30
2022-11-01T23:19:09.601Z,20.50
2022-11-01T23:22:23.857Z,19.10
2022-11-01T23:25:25.968Z,22.13
2022-11-01T23:28:28.198Z,20.83
2022-11-01T23:31:30.493Z,17.75
2022-11-01T23:34:32.543Z,21.88
2022-11-01T23:37:35.243Z,17.58
2022-11-01T23:40:37.131Z,19.58
2022-11-01T23:43:41.036Z,19.40
2022-11-01T23:46:43.054Z,17.02
2022-11-01T23:49:46.459Z,17.13
2022-11-01T23:52:54.331Z,15.93
2022-11-01T23:55:56.554Z,16.40
2022-11-01T23:59:04.299Z,15.30
